createdAt,value
2018-07-30T00:04:33.602Z,97.30
2018-07-30T00:09:38.531Z,96.90
2018-07-30T00:14:43.254Z,96.00
2018-07-30T00:19:48.398Z,95.40
2018-07-30T00:24:53.039Z,95.50
2018-07-30T00:29:57.720Z,95.30
2018-07-30T00:40:09.191Z,96.00
2018-07-30T00:45:14.135Z,95.50
2018-07-30T00:50:18.995Z,95.90
2018-07-30T00:55:23.702Z,96.20
2018-07-30T01:00:28.465Z,96.50
2018-07-30T01:05:33.150Z,97.30
2018-07-30T01:10:37.922Z,97.80
2018-07-30T01:15:42.661Z,97.80
2018-07-30T01:20:47.600Z,98.40
2018-07-30T01:25:53.196Z,98.30
2018-07-30T01:30:57.988Z,98.60
2018-07-30T01:36:02.962Z,98.30
2018-07-30T01:46:12.315Z,98.80
2018-07-30T01:51:17.141Z,98.80
2018-07-30T01:56:21.970Z,98.30
2018-07-30T02:01:26.752Z,98.30
2018-07-30T02:06:31.551Z,99.10
2018-07-30T02:11:36.499Z,99.50
2018-07-30T02:16:41.820Z,99.60
2018-07-30T02:21:46.685Z,99.60
2018-07-30T02:26:51.386Z,99.60
2018-07-30T02:31:56.243Z,99.60
2018-07-30T02:37:01.230Z,99.60
2018-07-30T02:42:06.063Z,99.60
2018-07-30T02:47:10.991Z,99.60
2018-07-30T02:52:15.897Z,99.60
2018-07-30T02:57:20.747Z,99.60
2018-07-30T03:02:26.030Z,99.60
2018-07-30T03:07:30.593Z,99.60
2018-07-30T03:12:35.455Z,99.60
2018-07-30T03:17:40.279Z,99.60
2018-07-30T03:22:45.146Z,99.60
2018-07-30T03:27:49.851Z,99.60
2018-07-30T03:32:54.919Z,99.60
2018-07-30T03:37:59.852Z,99.60
2018-07-30T03:43:04.672Z,99.60
2018-07-30T03:48:09.281Z,99.60
2018-07-30T03:53:14.208Z,99.60
2018-07-30T03:58:19.348Z,99.60
2018-07-30T04:03:24.295Z,99.60
2018-07-30T04:08:29.185Z,99.60
2018-07-30T04:13:33.938Z,99.60
2018-07-30T04:18:38.873Z,99.60
2018-07-30T04:23:43.961Z,99.60
2018-07-30T04:28:48.558Z,99.60
2018-07-30T04:33:53.223Z,99.60
2018-07-30T04:44:02.181Z,99.60
2018-07-30T04:49:07.116Z,99.60
2018-07-30T04:54:11.826Z,99.60
2018-07-30T04:59:16.675Z,99.60
2018-07-30T05:04:21.494Z,99.60
2018-07-30T05:09:26.373Z,99.60
2018-07-30T05:14:31.454Z,99.30
2018-07-30T05:19:36.593Z,98.80
2018-07-30T05:24:41.458Z,98.30
2018-07-30T05:29:46.317Z,97.50
2018-07-30T05:34:51.147Z,97.40
2018-07-30T05:39:55.857Z,97.00
2018-07-30T05:45:00.491Z,97.40
2018-07-30T05:50:05.492Z,97.20
2018-07-30T05:55:10.394Z,95.80
2018-07-30T06:00:15.347Z,94.60
2018-07-30T06:05:20.309Z,93.80
2018-07-30T06:10:25.121Z,94.20
2018-07-30T06:15:29.924Z,93.10
2018-07-30T06:20:34.790Z,92.90
2018-07-30T06:25:39.514Z,93.70
2018-07-30T06:30:44.362Z,94.20
2018-07-30T06:35:50.109Z,93.80
2018-07-30T06:41:01.296Z,94.30
2018-07-30T06:46:06.026Z,94.20
2018-07-30T06:51:10.794Z,93.80
2018-07-30T06:56:15.890Z,93.00
2018-07-30T07:01:21.260Z,92.10
2018-07-30T07:06:26.944Z,91.80
2018-07-30T07:11:31.863Z,90.80
2018-07-30T07:16:36.880Z,90.90
2018-07-30T07:21:41.613Z,90.50
2018-07-30T07:26:46.712Z,90.80
2018-07-30T07:31:51.305Z,91.60
2018-07-30T07:36:56.059Z,92.70
2018-07-30T07:42:00.682Z,93.30
2018-07-30T07:47:05.435Z,93.80
2018-07-30T07:52:10.157Z,93.50
2018-07-30T07:57:14.844Z,92.60
2018-07-30T08:02:19.634Z,91.30
2018-07-30T08:07:24.812Z,90.70
2018-07-30T08:12:29.797Z,90.90
2018-07-30T08:17:34.765Z,89.50
2018-07-30T08:22:39.512Z,89.30
2018-07-30T08:27:44.178Z,89.20
2018-07-30T08:32:48.877Z,89.50
2018-07-30T08:37:53.629Z,87.70
2018-07-30T08:42:58.458Z,87.60
2018-07-30T08:48:03.350Z,86.10
2018-07-30T08:53:08.136Z,86.50
2018-07-30T08:58:13.004Z,83.40
2018-07-30T09:03:17.666Z,83.80
2018-07-30T09:08:22.409Z,83.70
2018-07-30T09:13:27.191Z,84.50
2018-07-30T09:18:32.117Z,83.80
2018-07-30T09:23:36.967Z,82.90
2018-07-30T09:28:41.832Z,80.60
2018-07-30T09:33:47.155Z,79.20
2018-07-30T09:38:51.992Z,80.10
2018-07-30T09:43:56.854Z,80.90
2018-07-30T09:49:01.674Z,79.60
2018-07-30T09:54:06.421Z,77.80
2018-07-30T09:59:11.242Z,78.40
2018-07-30T10:04:16.081Z,76.90
2018-07-30T10:09:20.769Z,78.40
2018-07-30T10:14:26.453Z,77.10
2018-07-30T10:19:31.192Z,76.20
2018-07-30T10:24:36.681Z,74.80
2018-07-30T10:29:41.427Z,75.90
2018-07-30T10:34:46.338Z,76.00
2018-07-30T10:39:51.307Z,73.20
2018-07-30T10:44:56.215Z,73.10
2018-07-30T10:50:01.155Z,73.20
2018-07-30T10:55:06.814Z,71.90
2018-07-30T11:00:12.058Z,71.20
2018-07-30T11:05:16.732Z,71.00
2018-07-30T11:10:21.553Z,71.00
2018-07-30T11:15:26.222Z,70.30
2018-07-30T11:20:31.107Z,69.80
2018-07-30T11:25:35.668Z,67.80
2018-07-30T11:30:40.697Z,68.60
2018-07-30T11:35:45.757Z,66.00
2018-07-30T11:40:50.342Z,65.50
2018-07-30T11:45:55.240Z,62.30
2018-07-30T11:51:00.073Z,61.00
2018-07-30T11:56:05.017Z,59.80
2018-07-30T12:01:10.419Z,64.00
2018-07-30T12:06:15.555Z,63.00
2018-07-30T12:11:20.442Z,62.00
2018-07-30T12:21:30.088Z,58.80
2018-07-30T12:26:34.945Z,57.90
2018-07-30T12:31:39.902Z,55.30
2018-07-30T12:36:44.654Z,58.00
2018-07-30T12:41:49.290Z,53.90
2018-07-30T12:46:54.109Z,53.30
2018-07-30T12:51:58.893Z,52.80
2018-07-30T12:57:03.628Z,51.60
2018-07-30T13:02:08.484Z,50.60
2018-07-30T13:07:13.217Z,50.80
2018-07-30T13:12:17.890Z,49.30
2018-07-30T13:17:22.708Z,49.90
2018-07-30T13:22:27.301Z,49.70
2018-07-30T13:27:32.059Z,50.60
2018-07-30T13:32:37.013Z,50.20
2018-07-30T13:37:41.699Z,48.60
2018-07-30T13:42:46.611Z,50.30
2018-07-30T13:47:51.516Z,51.90
2018-07-30T13:52:57.080Z,51.70
2018-07-30T13:58:02.590Z,53.30
2018-07-30T14:03:07.599Z,53.00
2018-07-30T14:08:12.415Z,52.60
2018-07-30T14:13:17.351Z,52.60
2018-07-30T14:18:22.084Z,53.80
2018-07-30T14:23:26.786Z,50.70
2018-07-30T14:28:31.822Z,52.10
2018-07-30T14:33:36.540Z,51.80
2018-07-30T14:38:41.232Z,53.30
2018-07-30T14:43:46.442Z,51.50
2018-07-30T14:48:52.181Z,51.80
2018-07-30T14:53:57.071Z,50.80
2018-07-30T14:59:02.633Z,50.40
2018-07-30T15:04:07.469Z,53.50
2018-07-30T15:09:13.980Z,54.10
2018-07-30T15:14:19.539Z,52.30
2018-07-30T15:19:24.273Z,52.60
2018-07-30T15:29:33.402Z,51.50
2018-07-30T15:34:38.034Z,50.10
2018-07-30T15:39:42.777Z,51.30
2018-07-30T15:44:47.598Z,51.90
2018-07-30T15:49:52.553Z,53.10
2018-07-30T15:54:58.571Z,51.40
2018-07-30T16:05:09.677Z,50.90
2018-07-30T16:10:14.373Z,50.70
2018-07-30T16:15:19.750Z,50.90
2018-07-30T16:20:24.551Z,51.00
2018-07-30T16:25:29.383Z,50.80
2018-07-30T16:30:34.179Z,50.70
2018-07-30T16:35:38.975Z,51.10
2018-07-30T16:40:44.079Z,50.30
2018-07-30T16:45:49.185Z,51.70
2018-07-30T16:50:54.086Z,51.00
2018-07-30T16:55:58.979Z,51.00
2018-07-30T17:01:03.834Z,51.40
2018-07-30T17:06:08.780Z,53.70
2018-07-30T17:11:13.612Z,55.40
2018-07-30T17:16:18.607Z,57.00
2018-07-30T17:21:23.571Z,57.70
2018-07-30T17:26:28.222Z,60.00
2018-07-30T17:31:33.031Z,62.20
2018-07-30T17:36:37.725Z,64.10
2018-07-30T17:41:42.478Z,64.40
2018-07-30T17:46:47.646Z,63.80
2018-07-30T17:51:52.582Z,63.60
2018-07-30T17:56:57.816Z,64.40
2018-07-30T18:02:03.327Z,65.10
2018-07-30T18:07:08.226Z,64.20
2018-07-30T18:12:12.924Z,65.00
2018-07-30T18:17:17.723Z,66.00
2018-07-30T18:22:22.631Z,68.70
2018-07-30T18:27:28.511Z,73.50
2018-07-30T18:32:34.200Z,75.20
2018-07-30T18:42:43.016Z,76.20
2018-07-30T18:47:48.727Z,78.40
2018-07-30T18:52:53.710Z,75.70
2018-07-30T18:57:59.166Z,75.50
2018-07-30T19:03:03.911Z,76.00
2018-07-30T19:08:08.645Z,77.30
2018-07-30T19:13:13.575Z,78.50
2018-07-30T19:18:19.067Z,79.90
2018-07-30T19:23:23.978Z,78.00
2018-07-30T19:28:28.944Z,78.30
2018-07-30T19:38:38.037Z,80.10
2018-07-30T19:43:43.317Z,80.30
2018-07-30T19:48:48.211Z,79.80
2018-07-30T19:53:53.045Z,80.20
2018-07-30T19:58:58.161Z,81.00
2018-07-30T20:04:02.979Z,81.10
2018-07-30T20:09:10.521Z,81.70
2018-07-30T20:14:16.578Z,81.50
2018-07-30T20:19:21.207Z,82.20
2018-07-30T20:24:26.844Z,81.40
2018-07-30T20:29:31.546Z,81.60
2018-07-30T20:34:36.213Z,81.70
2018-07-30T20:39:40.888Z,82.40
2018-07-30T20:44:45.965Z,82.70
2018-07-30T20:49:51.252Z,82.50
2018-07-30T20:54:56.002Z,81.60
2018-07-30T21:00:00.795Z,82.20
2018-07-30T21:05:05.686Z,81.80
2018-07-30T21:10:10.423Z,81.50
2018-07-30T21:15:15.260Z,81.20
2018-07-30T21:20:20.382Z,81.40
2018-07-30T21:25:25.217Z,82.10
2018-07-30T21:30:30.066Z,83.10
2018-07-30T21:35:34.900Z,83.60
2018-07-30T21:40:40.992Z,85.10
2018-07-30T21:45:45.902Z,85.40
2018-07-30T21:50:50.729Z,85.80
2018-07-30T21:55:55.617Z,85.60
2018-07-30T22:01:00.478Z,85.70
2018-07-30T22:06:05.310Z,86.00
2018-07-30T22:11:09.993Z,85.80
2018-07-30T22:16:14.732Z,85.50
2018-07-30T22:21:20.043Z,85.30
2018-07-30T22:26:24.901Z,84.60
2018-07-30T22:31:29.779Z,83.50
2018-07-30T22:36:34.486Z,82.00
2018-07-30T22:41:40.668Z,83.70
2018-07-30T22:46:45.485Z,84.70
2018-07-30T22:51:50.292Z,85.40
2018-07-30T22:56:54.943Z,84.50
2018-07-30T23:02:00.514Z,86.40
2018-07-30T23:07:05.351Z,86.60
2018-07-30T23:12:10.296Z,86.10
2018-07-30T23:17:15.212Z,86.20
2018-07-30T23:22:19.970Z,87.00
2018-07-30T23:27:25.432Z,87.00
2018-07-30T23:32:30.384Z,87.10
2018-07-30T23:37:35.214Z,87.30
2018-07-30T23:42:39.978Z,86.80
2018-07-30T23:47:45.813Z,87.60
2018-07-30T23:52:51.294Z,86.60
2018-07-30T23:57:56.096Z,87.70
